Time;durP1;ratioP1;P1;durP2;ratioP2;P2;SDS_P1;SDS_P2;PMS_P1;PMS_P2;Temp;Humidity;BMP_temperature;BMP_pressure;BME280_temperature;BME280_humidity;BME280_pressure;Samples;Min_cycle;Max_cycle;Signal;HPM_P1;HPM_P2
2023/08/16 00:02:07;;;;;;;7.32;3.83;;;15.90;99.90;;;;;;4972872;28;37721;-81
2023/08/16 00:04:33;;;;;;;5.65;3.42;;;15.90;99.90;;;;;;4973561;28;36821;-81
2023/08/16 00:06:59;;;;;;;6.03;4.00;;;15.80;99.90;;;;;;4969457;28;36010;-80
2023/08/16 00:09:25;;;;;;;7.75;4.35;;;15.90;99.90;;;;;;4978624;28;39903;-81
2023/08/16 00:11:52;;;;;;;5.22;3.70;;;15.90;99.90;;;;;;4974854;28;37297;-81
2023/08/16 00:14:18;;;;;;;5.20;3.90;;;15.90;99.90;;;;;;4984310;28;37725;-80
2023/08/16 00:16:44;;;;;;;5.05;3.30;;;15.90;99.90;;;;;;4978962;28;36290;-80
2023/08/16 00:19:10;;;;;;;4.60;3.50;;;15.90;99.90;;;;;;4973824;28;39463;-81
2023/08/16 00:21:37;;;;;;;5.47;3.83;;;15.90;99.90;;;;;;4977894;28;37355;-81
2023/08/16 00:24:06;;;;;;;6.07;3.42;;;15.90;99.90;;;;;;4973507;28;36897;-81
2023/08/16 00:26:32;;;;;;;7.97;3.88;;;15.90;99.90;;;;;;4979354;28;36386;-80
2023/08/16 00:28:59;;;;;;;11.60;4.53;;;15.80;99.90;;;;;;4967039;28;38618;-81
2023/08/16 00:31:25;;;;;;;5.00;3.45;;;15.80;99.90;;;;;;4970891;28;37703;-81
2023/08/16 00:33:51;;;;;;;3.78;3.47;;;15.80;99.90;;;;;;4959671;28;38738;-80
2023/08/16 00:36:17;;;;;;;5.85;3.38;;;15.70;99.90;;;;;;4958158;28;38037;-80
2023/08/16 00:38:44;;;;;;;7.75;4.38;;;15.70;99.90;;;;;;4958598;28;39727;-80
2023/08/16 00:41:11;;;;;;;4.88;3.72;;;15.60;99.90;;;;;;4961238;28;39114;-81
2023/08/16 00:43:37;;;;;;;4.88;3.35;;;15.60;99.90;;;;;;4960784;28;36763;-80
2023/08/16 00:46:07;;;;;;;4.13;3.25;;;15.50;99.90;;;;;;4959489;28;37234;-79
2023/08/16 00:48:34;;;;;;;5.85;3.80;;;15.50;99.90;;;;;;4959623;28;37704;-80
2023/08/16 00:51:02;;;;;;;5.30;3.30;;;15.50;99.90;;;;;;4964492;28;38841;-80
2023/08/16 00:53:31;;;;;;;6.30;3.50;;;15.50;99.90;;;;;;4954048;28;48992;-80
2023/08/16 00:55:57;;;;;;;5.22;3.78;;;15.50;99.90;;;;;;4970330;28;38369;-79
2023/08/16 00:58:25;;;;;;;6.78;3.35;;;15.50;99.90;;;;;;4966245;28;39767;-79
2023/08/16 01:03:27;;;;;;;4.40;3.72;;;15.50;99.90;;;;;;5102153;23;20079;-73
2023/08/16 01:05:53;;;;;;;6.05;3.38;;;15.40;99.90;;;;;;4971138;28;37388;-73
2023/08/16 01:08:19;;;;;;;4.78;4.20;;;15.50;99.90;;;;;;4972516;28;37581;-74
2023/08/16 01:10:55;;;;;;;5.80;3.88;;;15.50;99.90;;;;;;4976430;28;39325;-73
2023/08/16 01:13:27;;;;;;;5.82;3.05;;;15.50;99.90;;;;;;4961535;28;38058;-74
2023/08/16 01:15:56;;;;;;;6.57;4.10;;;15.60;99.90;;;;;;4970474;28;37504;-73
2023/08/16 01:18:25;;;;;;;5.20;3.78;;;15.50;99.90;;;;;;4960547;28;38916;-73
2023/08/16 01:20:52;;;;;;;5.90;3.70;;;15.50;99.90;;;;;;4965017;28;38319;-73
2023/08/16 01:23:37;;;;;;;5.45;4.05;;;15.50;99.90;;;;;;4965264;28;37015;-73
2023/08/16 01:26:33;;;;;;;5.40;4.05;;;15.40;99.90;;;;;;4962045;28;35533;-73
2023/08/16 01:29:01;;;;;;;7.97;4.05;;;15.40;99.90;;;;;;4962145;28;38489;-73
2023/08/16 01:31:27;;;;;;;5.13;3.95;;;15.40;99.90;;;;;;4962880;28;49091;-73
2023/08/16 01:33:54;;;;;;;7.75;4.57;;;15.40;99.90;;;;;;4965010;28;39261;-73
2023/08/16 01:36:20;;;;;;;6.88;4.25;;;15.30;99.90;;;;;;4964202;28;36098;-74
2023/08/16 01:38:46;;;;;;;6.35;3.95;;;15.30;99.90;;;;;;4961241;28;39430;-73
2023/08/16 01:41:43;;;;;;;5.28;4.55;;;15.30;99.90;;;;;;4961561;28;37197;-74
2023/08/16 01:44:11;;;;;;;5.97;3.97;;;15.30;99.90;;;;;;4964113;28;37139;-73
2023/08/16 01:46:40;;;;;;;6.45;4.22;;;15.20;99.90;;;;;;4963380;28;37111;-73
2023/08/16 01:49:07;;;;;;;5.47;4.15;;;15.20;99.90;;;;;;4960314;28;38364;-73
2023/08/16 01:51:33;;;;;;;5.88;3.88;;;15.20;99.90;;;;;;4957979;28;39078;-73
2023/08/16 01:54:00;;;;;;;6.25;4.43;;;15.10;99.90;;;;;;4958781;28;37881;-73
2023/08/16 01:56:26;;;;;;;6.32;3.83;;;15.10;99.90;;;;;;4961102;28;37061;-73
2023/08/16 01:58:52;;;;;;;6.55;4.45;;;15.10;99.90;;;;;;4958824;28;37911;-72
2023/08/16 02:01:18;;;;;;;5.47;4.65;;;15.10;99.90;;;;;;4955877;28;39778;-74
2023/08/16 02:03:44;;;;;;;5.70;3.95;;;15.00;99.90;;;;;;4961429;28;39700;-71
2023/08/16 02:06:10;;;;;;;5.07;3.88;;;15.00;99.90;;;;;;4966703;28;36905;-74
2023/08/16 02:08:36;;;;;;;6.72;4.28;;;15.00;99.90;;;;;;4980617;28;38991;-74
2023/08/16 02:11:03;;;;;;;7.90;4.13;;;15.00;99.90;;;;;;4976011;28;37825;-74
2023/08/16 02:13:29;;;;;;;6.63;4.55;;;15.00;99.90;;;;;;4965983;28;36523;-75
2023/08/16 02:16:02;;;;;;;6.35;4.30;;;15.00;99.90;;;;;;4978059;28;37045;-71
2023/08/16 02:18:30;;;;;;;6.55;3.95;;;15.00;99.90;;;;;;4966510;28;46596;-74
2023/08/16 02:20:56;;;;;;;6.57;3.95;;;15.00;99.90;;;;;;4968812;28;38747;-75
2023/08/16 02:23:22;;;;;;;4.43;3.83;;;15.00;99.90;;;;;;4963076;28;39136;-74
2023/08/16 02:25:49;;;;;;;5.97;3.65;;;15.00;99.90;;;;;;4980688;28;37197;-74
2023/08/16 02:28:15;;;;;;;5.03;3.70;;;15.00;99.90;;;;;;4964289;28;38645;-74
2023/08/16 02:30:41;;;;;;;4.00;3.70;;;15.00;99.90;;;;;;4962904;28;37972;-75
2023/08/16 02:33:08;;;;;;;5.88;3.88;;;15.00;99.90;;;;;;4960635;28;36796;-75
2023/08/16 02:35:34;;;;;;;5.60;4.40;;;15.00;99.90;;;;;;4962325;28;36469;-74
2023/08/16 02:38:00;;;;;;;6.38;4.13;;;15.00;99.90;;;;;;4961381;28;38796;-75
2023/08/16 02:40:26;;;;;;;4.78;3.70;;;15.00;99.90;;;;;;4957116;28;39183;-72
2023/08/16 02:42:52;;;;;;;6.07;4.25;;;15.00;99.90;;;;;;4964285;28;36739;-75
2023/08/16 02:45:19;;;;;;;5.00;3.72;;;14.90;99.90;;;;;;4967896;28;36818;-73
2023/08/16 02:47:45;;;;;;;5.80;4.50;;;14.90;99.90;;;;;;4970338;28;39556;-74
2023/08/16 02:50:12;;;;;;;6.28;4.00;;;14.90;99.90;;;;;;4974432;28;39404;-73
2023/08/16 02:52:38;;;;;;;4.78;3.88;;;14.90;99.90;;;;;;4965200;28;39090;-73
2023/08/16 02:55:04;;;;;;;6.28;3.83;;;14.90;99.90;;;;;;4970431;28;36141;-74
2023/08/16 02:57:30;;;;;;;5.55;4.47;;;14.90;99.90;;;;;;4978557;28;38147;-73
2023/08/16 02:59:56;;;;;;;7.82;4.25;;;14.90;99.90;;;;;;4971629;28;38453;-72
2023/08/16 03:02:22;;;;;;;7.53;5.00;;;14.90;99.90;;;;;;4971235;28;37760;-73
2023/08/16 03:04:48;;;;;;;5.38;4.57;;;14.90;99.90;;;;;;4971304;28;36256;-73
2023/08/16 03:07:14;;;;;;;5.55;4.28;;;14.90;99.90;;;;;;4971828;28;37851;-74
2023/08/16 03:09:40;;;;;;;11.32;6.35;;;14.90;99.90;;;;;;4971982;28;38452;-73
2023/08/16 03:12:07;;;;;;;5.70;4.68;;;14.80;99.90;;;;;;4975604;28;38420;-73
2023/08/16 03:14:33;;;;;;;8.13;5.22;;;14.80;99.90;;;;;;4986928;28;37293;-73
2023/08/16 03:16:59;;;;;;;5.00;4.50;;;14.80;99.90;;;;;;4972115;28;38691;-73
2023/08/16 03:19:26;;;;;;;5.40;4.78;;;14.80;99.90;;;;;;4965688;28;37455;-73
2023/08/16 03:21:54;;;;;;;6.47;4.95;;;14.80;99.90;;;;;;4965114;28;38151;-73
2023/08/16 03:24:20;;;;;;;7.10;5.15;;;14.80;99.90;;;;;;4964683;28;37781;-73
2023/08/16 03:26:46;;;;;;;5.80;4.93;;;14.70;99.90;;;;;;4963213;28;39032;-73
2023/08/16 03:29:12;;;;;;;8.43;4.80;;;14.70;99.90;;;;;;4964209;28;38511;-74
2023/08/16 03:31:38;;;;;;;7.57;4.60;;;14.70;99.90;;;;;;4964755;28;36513;-73
2023/08/16 03:34:05;;;;;;;8.00;5.20;;;14.70;99.90;;;;;;4968951;28;38240;-74
2023/08/16 03:36:31;;;;;;;7.22;5.35;;;14.70;99.90;;;;;;4968749;28;37997;-73
2023/08/16 03:38:57;;;;;;;5.65;4.57;;;14.70;99.90;;;;;;4967338;28;36743;-73
2023/08/16 03:41:23;;;;;;;5.82;4.50;;;14.60;99.90;;;;;;4961375;28;36645;-73
2023/08/16 03:43:49;;;;;;;5.97;4.40;;;14.70;99.90;;;;;;4965258;28;38981;-74
2023/08/16 03:46:15;;;;;;;5.03;4.45;;;14.60;99.90;;;;;;4963362;28;38484;-73
2023/08/16 03:48:41;;;;;;;6.93;4.50;;;14.60;99.90;;;;;;4966150;28;39064;-73
2023/08/16 03:51:08;;;;;;;4.75;3.67;;;14.60;99.90;;;;;;4963784;28;36842;-73
2023/08/16 03:53:34;;;;;;;6.70;4.60;;;14.60;99.90;;;;;;4961073;28;38350;-72
2023/08/16 03:56:00;;;;;;;6.40;4.47;;;14.60;99.90;;;;;;4963314;28;38674;-74
2023/08/16 03:58:26;;;;;;;6.32;4.95;;;14.60;99.90;;;;;;4960586;28;47380;-73
2023/08/16 04:00:54;;;;;;;9.05;4.55;;;14.60;99.90;;;;;;4969606;28;37191;-75
2023/08/16 04:03:20;;;;;;;5.38;4.57;;;14.60;99.90;;;;;;4969559;28;36378;-72
2023/08/16 04:05:46;;;;;;;7.07;4.90;;;14.60;99.90;;;;;;4970332;28;38849;-75
2023/08/16 04:08:14;;;;;;;6.22;5.15;;;14.60;99.90;;;;;;4975345;28;38096;-75
2023/08/16 04:10:40;;;;;;;6.13;4.72;;;14.60;99.90;;;;;;4972138;28;37148;-75
2023/08/16 04:13:06;;;;;;;6.78;4.88;;;14.60;99.90;;;;;;4967914;28;36400;-75
2023/08/16 04:15:32;;;;;;;4.72;4.20;;;14.50;99.90;;;;;;4967070;28;38426;-75
2023/08/16 04:17:58;;;;;;;8.02;5.00;;;14.50;99.90;;;;;;4965902;28;39267;-72
2023/08/16 04:20:24;;;;;;;7.22;5.15;;;14.50;99.90;;;;;;4963164;28;37849;-73
2023/08/16 04:22:51;;;;;;;6.60;5.40;;;14.50;99.90;;;;;;4967492;28;36636;-72
2023/08/16 04:25:17;;;;;;;8.52;4.75;;;14.50;99.90;;;;;;4965978;28;39343;-73
2023/08/16 04:27:43;;;;;;;6.53;5.30;;;14.50;99.90;;;;;;4965427;28;38950;-74
2023/08/16 04:30:10;;;;;;;5.45;4.20;;;14.50;99.90;;;;;;4964017;28;37642;-73
2023/08/16 04:32:36;;;;;;;7.05;5.15;;;14.50;99.90;;;;;;4965674;28;37072;-73
2023/08/16 04:35:03;;;;;;;6.43;5.10;;;14.50;99.90;;;;;;4965471;28;38253;-73
2023/08/16 04:37:29;;;;;;;6.05;5.10;;;14.60;99.90;;;;;;4963333;28;48202;-73
2023/08/16 04:39:55;;;;;;;7.50;5.00;;;14.60;99.90;;;;;;4968623;28;36798;-72
2023/08/16 04:42:22;;;;;;;5.82;4.93;;;14.50;99.90;;;;;;4964641;28;36263;-73
2023/08/16 04:44:48;;;;;;;7.18;5.00;;;14.50;99.90;;;;;;4961076;28;38490;-73
2023/08/16 04:47:14;;;;;;;5.95;4.82;;;14.60;99.90;;;;;;4973226;28;37327;-73
2023/08/16 04:49:40;;;;;;;5.55;4.35;;;14.60;99.90;;;;;;4973754;28;38913;-74
2023/08/16 04:52:07;;;;;;;5.93;5.22;;;14.50;99.90;;;;;;4963233;28;36093;-73
2023/08/16 04:54:33;;;;;;;6.05;4.68;;;14.50;99.90;;;;;;4966147;28;38828;-72
2023/08/16 04:56:59;;;;;;;6.63;4.57;;;14.50;99.90;;;;;;4967887;28;38742;-72
2023/08/16 04:59:25;;;;;;;6.82;4.90;;;14.50;99.90;;;;;;4971893;28;38148;-75
2023/08/16 05:01:51;;;;;;;7.78;5.07;;;14.60;99.90;;;;;;4965913;28;36146;-72
2023/08/16 05:04:18;;;;;;;8.23;4.95;;;14.60;99.90;;;;;;4964683;28;37808;-72
2023/08/16 05:06:44;;;;;;;7.78;5.53;;;14.60;99.90;;;;;;4963914;28;39138;-72
2023/08/16 05:09:13;;;;;;;7.38;5.15;;;14.60;99.90;;;;;;4969439;28;37224;-75
2023/08/16 05:11:40;;;;;;;5.80;4.40;;;14.60;99.90;;;;;;4948663;28;37565;-73
2023/08/16 05:14:06;;;;;;;6.38;4.93;;;14.70;99.90;;;;;;4959252;28;40254;-73
2023/08/16 05:16:32;;;;;;;8.65;5.20;;;14.70;99.90;;;;;;4967652;28;38995;-77
2023/08/16 05:18:58;;;;;;;5.53;4.97;;;14.70;99.90;;;;;;4968492;28;36837;-73
2023/08/16 05:21:24;;;;;;;5.20;4.70;;;14.80;99.90;;;;;;4961786;28;37879;-73
2023/08/16 05:23:51;;;;;;;5.85;5.10;;;14.80;99.90;;;;;;4962136;28;37047;-73
2023/08/16 05:26:17;;;;;;;10.60;5.68;;;14.90;99.90;;;;;;4958524;28;39008;-73
2023/08/16 05:28:43;;;;;;;11.10;6.93;;;14.90;99.90;;;;;;4961956;28;37861;-73
2023/08/16 05:31:10;;;;;;;10.68;7.43;;;15.00;99.90;;;;;;4965080;28;36680;-75
2023/08/16 05:33:37;;;;;;;7.88;6.45;;;15.10;99.90;;;;;;4957851;28;37327;-75
2023/08/16 05:36:04;;;;;;;8.23;6.90;;;15.20;99.90;;;;;;4960830;28;37688;-73
2023/08/16 05:38:31;;;;;;;10.15;8.02;;;15.20;99.90;;;;;;4961027;28;38180;-74
2023/08/16 05:40:58;;;;;;;8.85;7.32;;;15.30;99.90;;;;;;4956641;28;36041;-74
2023/08/16 05:43:24;;;;;;;7.68;6.50;;;15.30;99.90;;;;;;4960050;28;38800;-74
2023/08/16 05:45:51;;;;;;;11.82;8.25;;;15.40;99.90;;;;;;4956136;28;37397;-76
2023/08/16 05:48:17;;;;;;;12.65;9.23;;;15.50;99.90;;;;;;4954619;28;37866;-75
2023/08/16 05:50:43;;;;;;;10.65;8.38;;;15.50;99.90;;;;;;4955360;28;37413;-76
2023/08/16 05:53:10;;;;;;;10.32;8.00;;;15.60;99.90;;;;;;4961667;28;38612;-75
2023/08/16 05:55:36;;;;;;;8.05;7.03;;;15.60;99.90;;;;;;4965114;28;38621;-75
2023/08/16 05:58:04;;;;;;;10.82;7.82;;;15.70;99.90;;;;;;4962012;28;37093;-77
2023/08/16 06:00:31;;;;;;;12.95;7.78;;;15.80;99.90;;;;;;4970163;28;36587;-74
2023/08/16 06:02:58;;;;;;;12.88;7.97;;;15.80;99.90;;;;;;4974297;28;37896;-75
2023/08/16 06:05:24;;;;;;;9.35;7.60;;;15.90;99.90;;;;;;4962733;28;38125;-73
2023/08/16 06:07:50;;;;;;;12.02;8.60;;;15.90;99.90;;;;;;4981946;28;39504;-75
2023/08/16 06:10:16;;;;;;;11.05;8.88;;;16.00;99.90;;;;;;4970467;28;37840;-74
2023/08/16 06:12:43;;;;;;;12.10;8.57;;;16.10;99.90;;;;;;4960641;28;39983;-73
2023/08/16 06:15:12;;;;;;;12.60;8.55;;;16.20;99.90;;;;;;4961526;28;38127;-75
2023/08/16 06:17:39;;;;;;;10.70;8.50;;;16.20;99.90;;;;;;4963007;28;39939;-73
2023/08/16 06:20:07;;;;;;;15.23;8.43;;;16.30;99.90;;;;;;4962594;28;37084;-74
2023/08/16 06:22:36;;;;;;;12.68;7.88;;;16.40;99.90;;;;;;4963992;28;39533;-73
2023/08/16 06:25:07;;;;;;;12.27;7.50;;;16.50;99.90;;;;;;4965163;28;38696;-75
2023/08/16 06:27:33;;;;;;;10.75;7.70;;;16.60;99.90;;;;;;4963381;28;48253;-74
2023/08/16 06:30:00;;;;;;;11.05;7.43;;;16.70;99.90;;;;;;4964036;28;36635;-75
2023/08/16 06:32:27;;;;;;;9.50;7.05;;;16.80;99.90;;;;;;4962908;28;37795;-74
2023/08/16 06:34:53;;;;;;;11.10;5.93;;;16.90;99.90;;;;;;4963919;28;38398;-74
2023/08/16 06:37:21;;;;;;;13.68;7.22;;;17.00;99.90;;;;;;4962443;28;37078;-73
2023/08/16 06:39:47;;;;;;;11.15;6.43;;;17.00;99.90;;;;;;4965817;28;38168;-74
2023/08/16 06:42:13;;;;;;;6.68;5.78;;;17.10;99.90;;;;;;4965617;28;37763;-75
2023/08/16 06:44:39;;;;;;;7.53;5.25;;;17.20;99.90;;;;;;4961326;28;38150;-75
2023/08/16 06:47:06;;;;;;;9.77;5.75;;;17.30;99.90;;;;;;4962806;28;36743;-75
2023/08/16 06:49:32;;;;;;;8.60;5.55;;;17.40;99.90;;;;;;4970475;28;38742;-75
2023/08/16 06:51:58;;;;;;;10.57;6.05;;;17.40;99.90;;;;;;4978690;28;38779;-74
2023/08/16 06:54:24;;;;;;;9.00;5.18;;;17.50;99.90;;;;;;4966881;28;37782;-75
2023/08/16 06:56:52;;;;;;;11.45;5.75;;;17.60;99.90;;;;;;4972197;28;36618;-75
2023/08/16 06:59:18;;;;;;;7.20;4.57;;;17.80;99.90;;;;;;4974857;28;37428;-73
2023/08/16 07:01:44;;;;;;;8.75;4.68;;;17.80;99.90;;;;;;4968153;28;39267;-74
2023/08/16 07:04:10;;;;;;;6.70;3.90;;;18.00;99.90;;;;;;4970176;28;37397;-74
2023/08/16 07:06:36;;;;;;;6.18;3.53;;;18.20;99.90;;;;;;4977487;28;36984;-74
2023/08/16 07:09:04;;;;;;;6.30;3.30;;;18.40;99.90;;;;;;4966166;28;37281;-74
2023/08/16 07:11:30;;;;;;;6.40;3.80;;;18.70;99.90;;;;;;4979286;28;37602;-75
2023/08/16 07:13:57;;;;;;;7.43;3.88;;;18.80;99.90;;;;;;4971009;28;38110;-74
2023/08/16 07:16:23;;;;;;;6.05;3.08;;;19.00;99.90;;;;;;4972429;28;38337;-74
2023/08/16 07:18:49;;;;;;;9.02;3.53;;;19.30;99.90;;;;;;4959697;28;36892;-73
2023/08/16 07:21:15;;;;;;;8.15;3.42;;;19.60;99.90;;;;;;4981006;28;37665;-73
2023/08/16 07:23:42;;;;;;;5.22;3.08;;;19.70;99.90;;;;;;4962380;28;39004;-73
2023/08/16 07:26:08;;;;;;;3.80;2.65;;;20.10;99.90;;;;;;4962398;28;37928;-74
2023/08/16 07:28:34;;;;;;;5.97;2.90;;;20.30;99.90;;;;;;4961765;28;38213;-74
2023/08/16 07:31:00;;;;;;;4.28;2.30;;;20.40;99.90;;;;;;4960455;28;38703;-75
2023/08/16 07:33:29;;;;;;;5.72;2.60;;;20.50;99.90;;;;;;4954006;28;37170;-74
2023/08/16 07:36:01;;;;;;;4.50;2.50;;;20.60;99.90;;;;;;4960392;28;38588;-75
2023/08/16 07:38:30;;;;;;;7.00;2.53;;;20.60;99.90;;;;;;4963682;28;47381;-74
2023/08/16 07:41:06;;;;;;;6.57;2.40;;;20.70;99.90;;;;;;4965117;28;38739;-74
2023/08/16 07:43:32;;;;;;;6.75;1.83;;;20.80;99.90;;;;;;4951074;28;47478;-75
2023/08/16 07:45:58;;;;;;;5.28;1.80;;;21.00;99.90;;;;;;4966759;28;37387;-78
2023/08/16 07:48:26;;;;;;;6.13;2.03;;;21.10;99.90;;;;;;4962287;28;36190;-77
2023/08/16 07:50:52;;;;;;;4.55;2.20;;;21.20;99.90;;;;;;4964159;28;38943;-78
2023/08/16 07:53:18;;;;;;;4.53;1.90;;;21.30;99.90;;;;;;4955827;28;37570;-77
2023/08/16 07:55:45;;;;;;;5.53;1.98;;;21.40;99.90;;;;;;4959093;28;37451;-76
2023/08/16 07:58:13;;;;;;;4.90;1.98;;;21.40;99.90;;;;;;4961478;28;36431;-77
2023/08/16 08:00:39;;;;;;;6.47;2.35;;;21.50;98.00;;;;;;4964738;28;38384;-77
2023/08/16 08:03:08;;;;;;;7.07;2.20;;;21.50;99.90;;;;;;4961119;28;37521;-77
2023/08/16 08:05:34;;;;;;;6.20;2.20;;;21.70;99.90;;;;;;4960882;28;38420;-78
2023/08/16 08:08:00;;;;;;;4.15;1.50;;;21.80;95.00;;;;;;4961667;28;35699;-78
2023/08/16 08:10:30;;;;;;;3.10;1.67;;;22.00;99.90;;;;;;4961177;28;20043;-77
2023/08/16 08:12:56;;;;;;;4.18;1.35;;;22.40;99.70;;;;;;4960311;28;37440;-77
2023/08/16 08:15:22;;;;;;;3.72;1.20;;;22.70;99.90;;;;;;4963474;28;37977;-76
2023/08/16 08:17:48;;;;;;;4.32;1.20;;;23.00;94.70;;;;;;4958580;28;36219;-76
2023/08/16 08:20:15;;;;;;;4.18;1.27;;;23.40;91.70;;;;;;4966439;28;38252;-78
2023/08/16 08:22:41;;;;;;;3.53;1.00;;;23.40;51.90;;;;;;4967291;28;38430;-77
2023/08/16 08:25:08;;;;;;;4.50;1.10;;;23.60;81.90;;;;;;4963909;28;37943;-76
2023/08/16 08:27:34;;;;;;;4.07;1.25;;;23.50;51.90;;;;;;4970177;28;36071;-77
2023/08/16 08:30:02;;;;;;;4.82;1.20;;;23.20;41.70;;;;;;4971121;28;38711;-77
2023/08/16 08:32:28;;;;;;;3.33;0.85;;;23.00;63.20;;;;;;4971924;28;38338;-77
2023/08/16 08:34:54;;;;;;;5.35;1.20;;;22.80;41.60;;;;;;4959841;28;37860;-77
2023/08/16 08:37:20;;;;;;;2.97;1.25;;;22.50;32.20;;;;;;4970786;28;36490;-77
2023/08/16 08:39:47;;;;;;;3.05;1.02;;;22.40;67.10;;;;;;4969700;28;40102;-77
2023/08/16 08:42:13;;;;;;;3.45;0.98;;;22.40;59.00;;;;;;4972007;28;37677;-77
2023/08/16 08:44:42;;;;;;;1.85;1.13;;;22.60;54.60;;;;;;4970744;28;36940;-76
2023/08/16 08:47:09;;;;;;;4.85;1.77;;;23.00;41.40;;;;;;4972271;28;37175;-76
2023/08/16 08:49:36;;;;;;;2.00;1.10;;;23.10;52.90;;;;;;4964918;28;38978;-76
2023/08/16 08:52:03;;;;;;;6.55;1.67;;;23.40;45.00;;;;;;4964193;28;38824;-77
2023/08/16 08:54:30;;;;;;;2.47;1.00;;;23.60;29.70;;;;;;4966109;28;37107;-77
2023/08/16 08:56:59;;;;;;;3.13;0.98;;;23.60;31.80;;;;;;4965404;28;37282;-75
2023/08/16 08:59:27;;;;;;;6.80;1.30;;;23.80;52.10;;;;;;4962371;28;38002;-77
2023/08/16 09:01:54;;;;;;;4.25;0.95;;;23.70;18.60;;;;;;4968175;28;38526;-76
2023/08/16 09:04:21;;;;;;;3.28;1.23;;;23.70;54.30;;;;;;4976541;28;36889;-76
2023/08/16 09:06:48;;;;;;;3.58;0.75;;;23.80;21.90;;;;;;4980208;28;37363;-75
2023/08/16 09:09:14;;;;;;;2.88;0.75;;;24.00;17.00;;;;;;4974028;28;38569;-77
2023/08/16 09:11:42;;;;;;;6.25;1.35;;;24.10;3.50;;;;;;4964430;28;37048;-77
2023/08/16 09:14:09;;;;;;;2.13;0.80;;;24.40;1.00;;;;;;4959200;28;36939;-75
2023/08/16 09:16:35;;;;;;;4.35;1.58;;;24.50;25.40;;;;;;4959557;28;36614;-77
2023/08/16 09:19:02;;;;;;;3.30;1.05;;;24.70;24.70;;;;;;4967201;28;38038;-77
2023/08/16 09:21:29;;;;;;;3.97;1.00;;;24.90;1.00;;;;;;4973112;28;38608;-77
2023/08/16 09:23:58;;;;;;;4.22;1.35;;;24.70;1.00;;;;;;4972039;28;38900;-74
2023/08/16 09:26:28;;;;;;;3.13;0.80;;;24.50;1.00;;;;;;4973734;28;36117;-75
2023/08/16 09:28:58;;;;;;;3.70;1.30;;;24.50;16.50;;;;;;4973488;28;38295;-75
2023/08/16 09:31:31;;;;;;;2.78;0.85;;;24.50;1.00;;;;;;4965835;28;38499;-76
2023/08/16 09:34:01;;;;;;;2.72;1.00;;;24.50;1.00;;;;;;4970718;28;38030;-75
2023/08/16 09:36:30;;;;;;;2.88;0.90;;;24.60;8.30;;;;;;4969089;28;47414;-75
2023/08/16 09:39:01;;;;;;;1.83;1.00;;;24.70;1.00;;;;;;4969217;28;39476;-75
2023/08/16 09:41:27;;;;;;;3.03;1.10;;;24.90;1.00;;;;;;4963173;28;46529;-76
2023/08/16 09:44:10;;;;;;;2.03;0.95;;;25.10;6.30;;;;;;4964747;28;38355;-76
2023/08/16 09:46:41;;;;;;;2.00;0.73;;;25.10;1.00;;;;;;4965175;28;48923;-76
2023/08/16 09:49:09;;;;;;;3.30;0.85;;;24.90;1.00;;;;;;4961732;28;38910;-77
2023/08/16 09:51:40;;;;;;;1.33;0.70;;;24.70;1.00;;;;;;4965606;28;37271;-78
2023/08/16 09:54:13;;;;;;;2.40;0.77;;;24.70;1.00;;;;;;4972232;28;38245;-76
2023/08/16 09:56:43;;;;;;;4.72;0.70;;;24.70;14.90;;;;;;4967903;28;37101;-76
2023/08/16 09:59:11;;;;;;;6.60;0.60;;;24.80;1.00;;;;;;4966999;28;37819;-78
2023/08/16 10:01:38;;;;;;;0.82;0.40;;;24.90;1.00;;;;;;4962155;28;38512;-78
2023/08/16 10:04:05;;;;;;;1.83;0.70;;;25.10;1.00;;;;;;4964730;28;37676;-78
2023/08/16 10:06:33;;;;;;;3.65;0.70;;;25.20;1.00;;;;;;4964434;28;37167;-78
2023/08/16 10:09:02;;;;;;;1.48;1.00;;;25.20;1.00;;;;;;4976197;28;37440;-79
2023/08/16 10:11:28;;;;;;;1.90;0.80;;;25.30;1.00;;;;;;4976470;28;47546;-79
2023/08/16 10:13:55;;;;;;;2.42;0.70;;;25.30;1.00;;;;;;4984581;28;37649;-78
2023/08/16 10:16:22;;;;;;;1.42;0.68;;;25.50;1.00;;;;;;4984885;28;37584;-75
2023/08/16 10:18:50;;;;;;;2.10;1.00;;;25.50;1.00;;;;;;4973391;28;37756;-78
2023/08/16 10:21:18;;;;;;;3.65;1.00;;;25.50;1.00;;;;;;4983516;28;38709;-79
2023/08/16 10:23:46;;;;;;;2.90;0.80;;;25.50;1.00;;;;;;4982808;28;37979;-79
2023/08/16 10:26:15;;;;;;;2.53;0.90;;;25.20;1.00;;;;;;4983602;28;37845;-78
2023/08/16 10:29:07;;;;;;;1.95;0.68;;;25.10;1.00;;;;;;4990188;28;38637;-80
2023/08/16 10:31:38;;;;;;;2.72;0.90;;;25.30;1.00;;;;;;4996956;28;47093;-79
2023/08/16 10:34:07;;;;;;;2.47;0.73;;;25.60;1.00;;;;;;4968159;28;38106;-77
2023/08/16 10:36:35;;;;;;;3.70;1.02;;;26.00;1.00;;;;;;4975635;28;37290;-80
2023/08/16 10:39:01;;;;;;;2.13;0.88;;;26.10;1.00;;;;;;4968496;28;38713;-77
2023/08/16 10:41:27;;;;;;;1.67;0.45;;;26.10;1.00;;;;;;4970516;28;47120;-78
2023/08/16 10:43:54;;;;;;;2.80;0.52;;;26.00;99.90;;;;;;4969434;28;36567;-78
2023/08/16 10:46:33;;;;;;;1.77;0.57;;;25.80;1.00;;;;;;4970638;28;36836;-78
2023/08/16 10:49:01;;;;;;;1.52;0.63;;;26.00;1.00;;;;;;4961010;28;37875;-79
2023/08/16 10:51:29;;;;;;;3.08;0.60;;;26.10;99.90;;;;;;4978799;28;47176;-78
2023/08/16 10:53:56;;;;;;;2.03;0.60;;;25.90;99.90;;;;;;4958176;28;37258;-78
2023/08/16 10:56:22;;;;;;;5.07;0.73;;;25.90;71.80;;;;;;4970258;28;38218;-78
2023/08/16 10:58:50;;;;;;;1.95;0.60;;;25.90;24.20;;;;;;4967056;28;37611;-78
2023/08/16 11:01:18;;;;;;;2.13;0.80;;;25.70;99.90;;;;;;4971674;28;39060;-78
2023/08/16 11:03:46;;;;;;;4.80;0.70;;;26.00;5.00;;;;;;4971200;28;36935;-78
2023/08/16 11:06:14;;;;;;;1.77;0.60;;;26.30;99.90;;;;;;4965842;28;36115;-78
2023/08/16 11:08:47;;;;;;;1.90;0.70;;;26.30;21.70;;;;;;4967281;28;39626;-80
2023/08/16 11:11:14;;;;;;;2.90;0.82;;;26.40;1.00;;;;;;4968160;28;37357;-78
2023/08/16 11:13:41;;;;;;;2.25;0.60;;;26.40;99.90;;;;;;4961053;28;36909;-79
2023/08/16 11:16:11;;;;;;;7.05;0.85;;;26.40;1.00;;;;;;4962392;28;36873;-78
2023/08/16 11:18:39;;;;;;;4.93;1.00;;;26.50;1.00;;;;;;4965139;28;39019;-77
2023/08/16 11:21:08;;;;;;;1.33;0.73;;;26.30;1.00;;;;;;4969515;28;38205;-78
2023/08/16 11:23:39;;;;;;;1.90;1.00;;;26.50;1.00;;;;;;4974620;28;39168;-78
2023/08/16 11:26:07;;;;;;;5.43;0.97;;;26.30;1.00;;;;;;4968914;28;36049;-77
2023/08/16 11:28:34;;;;;;;0.98;0.52;;;26.50;1.00;;;;;;4967779;28;38638;-79
2023/08/16 11:31:02;;;;;;;2.08;0.75;;;26.40;99.90;;;;;;4967609;28;38500;-79
2023/08/16 11:33:33;;;;;;;3.13;1.13;;;26.40;98.30;;;;;;4958370;28;47238;-80
2023/08/16 11:36:01;;;;;;;2.40;0.65;;;26.30;1.00;;;;;;4971004;28;36052;-80
2023/08/16 11:38:27;;;;;;;4.53;0.65;;;26.40;99.90;;;;;;4970312;28;47700;-78
2023/08/16 11:40:54;;;;;;;2.25;0.88;;;26.50;1.00;;;;;;4966497;28;37314;-81
2023/08/16 11:43:28;;;;;;;0.95;0.50;;;26.60;1.00;;;;;;4981997;28;37072;-80
2023/08/16 11:45:57;;;;;;;1.25;0.70;;;26.70;1.00;;;;;;4968379;28;38148;-80
2023/08/16 11:48:25;;;;;;;1.60;0.43;;;26.80;1.00;;;;;;4980554;28;39646;-80
2023/08/16 11:50:54;;;;;;;2.97;0.90;;;26.90;99.90;;;;;;4961180;28;38604;-81
2023/08/16 11:53:21;;;;;;;2.75;0.45;;;27.10;1.00;;;;;;4974605;28;38526;-80
2023/08/16 11:56:08;;;;;;;2.13;1.10;;;27.10;99.90;;;;;;4965119;28;37886;-80
2023/08/16 11:58:46;;;;;;;2.83;0.52;;;27.10;99.90;;;;;;4968419;28;47690;-79
2023/08/16 12:01:14;;;;;;;0.88;0.50;;;27.10;1.00;;;;;;4963538;28;39265;-79
2023/08/16 12:03:45;;;;;;;2.92;0.98;;;26.80;1.00;;;;;;4961041;28;37839;-79
2023/08/16 12:06:11;;;;;;;1.30;0.63;;;26.80;1.00;;;;;;4964699;28;36125;-78
2023/08/16 12:08:48;;;;;;;1.75;0.73;;;26.60;1.00;;;;;;4965827;28;38683;-80
2023/08/16 12:11:28;;;;;;;2.60;0.80;;;26.70;1.00;;;;;;4980303;28;38613;-79
2023/08/16 12:13:55;;;;;;;2.65;0.82;;;26.90;99.90;;;;;;4973470;28;37196;-81
2023/08/16 12:16:21;;;;;;;1.15;0.52;;;26.90;1.00;;;;;;4971301;28;38014;-81
2023/08/16 12:18:50;;;;;;;2.40;0.77;;;26.80;99.90;;;;;;4963871;28;37309;-81
2023/08/16 12:21:16;;;;;;;3.20;0.80;;;26.70;17.00;;;;;;4964436;28;37345;-81
2023/08/16 12:23:42;;;;;;;2.20;0.80;;;27.10;1.00;;;;;;4966146;28;37908;-80
2023/08/16 12:26:08;;;;;;;1.55;0.52;;;27.10;1.00;;;;;;4982162;28;36314;-80
2023/08/16 12:28:35;;;;;;;3.30;0.63;;;27.10;1.00;;;;;;4980361;28;38753;-79
2023/08/16 12:31:01;;;;;;;1.98;0.60;;;27.10;99.90;;;;;;4968592;28;39450;-79
2023/08/16 12:33:27;;;;;;;2.10;0.52;;;27.10;1.00;;;;;;4973752;28;41164;-79
2023/08/16 12:35:53;;;;;;;2.53;0.93;;;27.10;99.90;;;;;;4977825;28;37607;-80
2023/08/16 12:38:19;;;;;;;3.95;0.70;;;27.10;1.00;;;;;;4981577;28;37420;-79
2023/08/16 12:40:45;;;;;;;2.78;0.60;;;27.20;1.00;;;;;;4970832;28;37411;-80
2023/08/16 12:43:11;;;;;;;1.60;0.77;;;27.30;1.00;;;;;;4967585;28;37833;-78
2023/08/16 12:45:38;;;;;;;1.10;0.50;;;27.40;99.90;;;;;;4968821;28;38059;-80
2023/08/16 12:48:05;;;;;;;3.67;0.90;;;27.00;1.00;;;;;;4966925;28;39039;-79
2023/08/16 12:50:31;;;;;;;3.17;0.60;;;26.80;1.00;;;;;;4968550;28;37346;-79
2023/08/16 12:52:59;;;;;;;2.35;0.90;;;26.70;1.00;;;;;;4967733;28;36829;-78